createdAt,value
2022-09-18T00:01:42.302Z,15.02
2022-09-18T00:04:16.547Z,15.01
2022-09-18T00:06:45.938Z,15.08
2022-09-18T00:09:16.136Z,15.13
2022-09-18T00:11:50.359Z,15.06
2022-09-18T00:14:22.746Z,15.11
2022-09-18T00:16:51.769Z,15.12
2022-09-18T00:19:21.513Z,15.10
2022-09-18T00:21:52.032Z,15.14
2022-09-18T00:24:22.537Z,15.11
2022-09-18T00:26:51.430Z,15.13
2022-09-18T00:29:20.430Z,15.09
2022-09-18T00:31:49.265Z,15.16
2022-09-18T00:34:18.004Z,15.13
2022-09-18T00:36:46.685Z,15.09
2022-09-18T00:39:15.475Z,15.07
2022-09-18T00:41:45.289Z,15.12
2022-09-18T00:44:34.767Z,15.13
2022-09-18T00:47:12.159Z,15.15
2022-09-18T00:50:34.407Z,15.15
2022-09-18T00:53:08.119Z,15.22
2022-09-18T00:55:38.503Z,15.20
2022-09-18T00:58:07.523Z,15.20
2022-09-18T01:00:37.489Z,15.22
2022-09-18T01:03:07.356Z,15.17
2022-09-18T01:06:00.947Z,15.20
2022-09-18T01:08:51.125Z,15.15
2022-09-18T01:11:53.905Z,15.19
2022-09-18T01:14:44.716Z,15.16
2022-09-18T01:17:29.073Z,15.22
2022-09-18T01:20:34.814Z,15.21
2022-09-18T01:23:41.098Z,15.14
2022-09-18T01:26:37.558Z,15.14
2022-09-18T01:29:16.965Z,15.09
2022-09-18T01:32:04.800Z,15.07
2022-09-18T01:34:36.270Z,15.05
2022-09-18T01:37:36.076Z,14.93
2022-09-18T01:40:46.234Z,14.95
2022-09-18T01:43:19.140Z,14.82
2022-09-18T01:45:52.400Z,14.83
2022-09-18T01:48:31.033Z,14.77
2022-09-18T01:51:43.743Z,14.76
2022-09-18T01:54:18.183Z,14.75
2022-09-18T01:56:54.906Z,14.71
2022-09-18T01:59:35.310Z,14.71
2022-09-18T02:02:37.778Z,14.71
2022-09-18T02:05:11.259Z,14.71
2022-09-18T02:08:01.066Z,14.71
2022-09-18T02:10:34.267Z,14.71
2022-09-18T02:13:04.759Z,14.71
2022-09-18T02:15:40.479Z,14.71
2022-09-18T02:18:22.640Z,14.69
2022-09-18T02:20:53.503Z,14.69
2022-09-18T02:23:23.800Z,14.69
2022-09-18T02:26:00.826Z,14.67
2022-09-18T02:28:32.160Z,14.60
2022-09-18T02:31:01.815Z,14.50
2022-09-18T02:33:36.843Z,14.38
2022-09-18T02:36:33.315Z,14.23
2022-09-18T02:39:05.802Z,14.07
2022-09-18T02:41:50.155Z,14.07
2022-09-18T02:44:28.363Z,14.08
2022-09-18T02:47:35.854Z,14.11
2022-09-18T02:50:13.567Z,14.15
2022-09-18T02:52:56.312Z,14.17
2022-09-18T02:55:41.033Z,14.18
2022-09-18T02:58:25.385Z,14.19
2022-09-18T03:00:58.995Z,14.17
2022-09-18T03:03:30.753Z,14.14
2022-09-18T03:06:03.743Z,14.12
2022-09-18T03:08:36.115Z,14.13
2022-09-18T03:11:06.863Z,14.14
2022-09-18T03:13:36.358Z,14.15
2022-09-18T03:16:05.191Z,14.18
2022-09-18T03:18:34.029Z,14.21
2022-09-18T03:21:02.622Z,14.23
2022-09-18T03:23:31.409Z,14.21
2022-09-18T03:26:13.818Z,14.20
2022-09-18T03:28:44.544Z,14.22
2022-09-18T03:31:15.671Z,14.23
2022-09-18T03:33:45.811Z,14.27
2022-09-18T03:36:14.815Z,14.25
2022-09-18T03:38:43.520Z,14.25
2022-09-18T03:41:13.200Z,14.29
2022-09-18T03:43:42.302Z,14.34
2022-09-18T03:46:12.794Z,14.34
2022-09-18T03:48:41.623Z,14.35
2022-09-18T03:51:11.130Z,14.37
2022-09-18T03:53:40.338Z,14.37
2022-09-18T03:56:27.353Z,14.35
2022-09-18T03:59:10.358Z,14.34
2022-09-18T04:02:07.043Z,14.31
2022-09-18T04:05:19.824Z,14.28
2022-09-18T04:08:11.047Z,14.29
2022-09-18T04:11:38.822Z,14.29
2022-09-18T04:14:07.605Z,14.27
2022-09-18T04:16:36.341Z,14.27
2022-09-18T04:19:05.078Z,14.29
2022-09-18T04:21:34.382Z,14.33
2022-09-18T04:24:03.444Z,14.36
2022-09-18T04:26:33.909Z,14.40
2022-09-18T04:29:03.524Z,14.41
2022-09-18T04:31:32.549Z,14.43
2022-09-18T04:34:05.492Z,14.42
2022-09-18T04:36:34.694Z,14.42
2022-09-18T04:39:04.316Z,14.42
2022-09-18T04:41:33.219Z,14.41
2022-09-18T04:44:04.590Z,14.41
2022-09-18T04:46:33.820Z,14.42
2022-09-18T04:49:03.039Z,14.41
2022-09-18T04:51:31.827Z,14.44
2022-09-18T04:54:01.609Z,14.46
2022-09-18T04:56:30.445Z,14.51
2022-09-18T04:59:00.625Z,14.56
2022-09-18T05:01:30.268Z,14.60
2022-09-18T05:04:00.594Z,14.64
2022-09-18T05:06:39.359Z,14.67
2022-09-18T05:09:08.264Z,14.62
2022-09-18T05:11:36.892Z,14.69
2022-09-18T05:14:06.615Z,14.65
2022-09-18T05:16:35.552Z,14.63
2022-09-18T05:19:23.642Z,14.61
2022-09-18T05:21:56.415Z,14.61
2022-09-18T05:24:25.101Z,14.57
2022-09-18T05:26:53.913Z,14.58
2022-09-18T05:29:23.305Z,14.56
2022-09-18T05:31:52.764Z,14.57
2022-09-18T05:34:21.595Z,14.55
2022-09-18T05:36:50.566Z,14.51
2022-09-18T05:39:19.393Z,14.46
2022-09-18T05:41:52.883Z,14.49
2022-09-18T05:44:21.664Z,14.58
2022-09-18T05:46:50.755Z,14.63
2022-09-18T05:49:19.968Z,14.69
2022-09-18T05:51:48.653Z,14.74
2022-09-18T05:54:17.846Z,14.76
2022-09-18T05:56:50.419Z,14.77
2022-09-18T05:59:19.108Z,14.83
2022-09-18T06:01:49.844Z,14.90
2022-09-18T06:04:37.172Z,14.90
2022-09-18T06:07:07.906Z,14.95
2022-09-18T06:09:36.908Z,15.00
2022-09-18T06:12:06.830Z,15.08
2022-09-18T06:14:36.932Z,15.18
2022-09-18T06:17:06.115Z,15.21
2022-09-18T06:19:35.955Z,15.28
2022-09-18T06:22:05.047Z,15.33
2022-09-18T06:24:34.342Z,15.43
2022-09-18T06:27:11.735Z,15.55
2022-09-18T06:29:41.051Z,15.65
2022-09-18T06:32:15.776Z,15.70
2022-09-18T06:34:44.523Z,15.76
2022-09-18T06:37:15.972Z,15.95
2022-09-18T06:39:44.784Z,16.00
2022-09-18T06:43:04.279Z,16.18
2022-09-18T06:46:19.921Z,16.32
2022-09-18T06:48:49.874Z,16.39
2022-09-18T06:51:19.697Z,16.34
2022-09-18T06:54:22.623Z,16.43
2022-09-18T06:56:57.547Z,16.58
2022-09-18T06:59:26.950Z,16.56
2022-09-18T07:01:56.989Z,16.61
2022-09-18T07:04:42.625Z,16.67
2022-09-18T07:07:11.585Z,16.79
2022-09-18T07:09:40.211Z,16.89
2022-09-18T07:13:02.396Z,16.88
2022-09-18T07:15:32.281Z,16.84
2022-09-18T07:18:04.535Z,16.91
2022-09-18T07:20:33.423Z,17.07
2022-09-18T07:23:03.241Z,17.19
2022-09-18T07:25:41.549Z,17.29
2022-09-18T07:28:12.000Z,17.38
2022-09-18T07:30:46.708Z,17.51
2022-09-18T07:33:16.934Z,17.68
2022-09-18T07:35:48.889Z,17.78
2022-09-18T07:38:18.706Z,17.84
2022-09-18T07:40:54.865Z,17.90
2022-09-18T07:43:46.091Z,17.99
2022-09-18T07:46:14.912Z,18.06
2022-09-18T07:48:46.319Z,18.12
2022-09-18T07:51:26.282Z,18.12
2022-09-18T07:53:56.224Z,18.17
2022-09-18T07:56:34.165Z,18.18
2022-09-18T07:59:04.221Z,18.22
2022-09-18T08:01:35.717Z,18.19
2022-09-18T08:04:06.757Z,18.29
2022-09-18T08:06:38.754Z,18.41
2022-09-18T08:09:17.163Z,18.47
2022-09-18T08:11:54.595Z,18.46
2022-09-18T08:15:10.954Z,18.39
2022-09-18T08:18:29.102Z,18.47
2022-09-18T08:21:31.342Z,18.59
2022-09-18T08:24:03.711Z,18.59
2022-09-18T08:26:36.031Z,18.62
2022-09-18T08:29:06.961Z,18.63
2022-09-18T08:31:37.329Z,18.62
2022-09-18T08:34:09.744Z,18.59
2022-09-18T08:36:38.931Z,18.59
2022-09-18T08:39:22.603Z,18.53
2022-09-18T08:43:14.421Z,18.61
2022-09-18T08:46:07.196Z,18.61
2022-09-18T08:48:48.837Z,18.66
2022-09-18T08:51:51.624Z,18.77
2022-09-18T08:54:44.616Z,18.79
2022-09-18T08:58:15.069Z,18.86
2022-09-18T09:00:58.880Z,18.85
2022-09-18T09:04:08.876Z,18.86
2022-09-18T09:07:05.989Z,18.98
2022-09-18T09:10:28.401Z,18.97
2022-09-18T09:13:31.653Z,18.76
2022-09-18T09:16:05.555Z,18.69
2022-09-18T09:19:05.702Z,18.50
2022-09-18T09:21:55.801Z,18.46
2022-09-18T09:25:04.075Z,18.53
2022-09-18T09:28:13.342Z,18.75
2022-09-18T09:31:04.184Z,18.86
2022-09-18T09:34:22.226Z,18.92
2022-09-18T09:37:42.750Z,18.88
2022-09-18T09:40:25.961Z,18.78
2022-09-18T09:43:32.468Z,18.67
2022-09-18T09:46:28.013Z,18.69
2022-09-18T09:49:12.393Z,18.78
2022-09-18T09:52:09.309Z,18.84
2022-09-18T09:54:39.931Z,18.82
2022-09-18T09:57:49.313Z,18.60
2022-09-18T10:00:20.515Z,17.96
2022-09-18T10:03:32.242Z,17.22
2022-09-18T10:06:13.941Z,16.61
2022-09-18T10:09:33.279Z,16.18
2022-09-18T10:12:45.594Z,15.81
2022-09-18T10:15:22.282Z,15.56
2022-09-18T10:17:58.078Z,15.70
2022-09-18T10:20:30.999Z,15.77
2022-09-18T10:23:33.083Z,15.62
2022-09-18T10:26:03.042Z,15.78
2022-09-18T10:28:33.265Z,15.92
2022-09-18T10:31:10.974Z,16.08
2022-09-18T10:33:43.443Z,16.53
2022-09-18T10:36:39.547Z,16.91
2022-09-18T10:39:31.909Z,17.53
2022-09-18T10:42:12.410Z,18.06
2022-09-18T10:44:51.428Z,18.15
2022-09-18T10:47:30.971Z,17.96
2022-09-18T10:50:11.905Z,17.75
2022-09-18T10:52:43.352Z,17.74
2022-09-18T10:55:24.921Z,18.04
2022-09-18T10:58:16.023Z,18.38
2022-09-18T11:01:03.896Z,18.57
2022-09-18T11:03:48.132Z,18.63
2022-09-18T11:06:29.795Z,18.48
2022-09-18T11:09:08.860Z,18.28
2022-09-18T11:11:45.216Z,18.03
2022-09-18T11:14:28.008Z,17.85
2022-09-18T11:17:24.601Z,17.69
2022-09-18T11:19:57.754Z,17.99
2022-09-18T11:22:43.285Z,18.38
2022-09-18T11:25:29.681Z,18.75
2022-09-18T11:28:31.101Z,19.16
2022-09-18T11:31:22.086Z,19.82
2022-09-18T11:34:00.859Z,20.68
2022-09-18T11:36:34.313Z,20.53
2022-09-18T11:39:15.929Z,20.56
2022-09-18T11:41:49.745Z,20.59
2022-09-18T11:44:33.052Z,20.61
2022-09-18T11:47:38.187Z,20.82
2022-09-18T11:50:10.119Z,20.91
2022-09-18T11:52:45.462Z,20.80
2022-09-18T11:55:55.907Z,20.95
2022-09-18T11:58:31.597Z,20.64
2022-09-18T12:01:38.704Z,20.38
2022-09-18T12:04:21.916Z,19.84
2022-09-18T12:07:14.417Z,19.63
2022-09-18T12:10:42.274Z,19.01
2022-09-18T12:13:37.232Z,18.60
2022-09-18T12:16:33.209Z,18.36
2022-09-18T12:19:39.484Z,18.66
2022-09-18T12:22:33.488Z,19.32
2022-09-18T12:25:15.265Z,19.52
2022-09-18T12:28:49.159Z,19.71
2022-09-18T12:32:05.832Z,20.07
2022-09-18T12:35:13.278Z,19.80
2022-09-18T12:37:56.859Z,19.17
2022-09-18T12:41:04.430Z,18.83
2022-09-18T12:44:00.641Z,18.30
2022-09-18T12:46:52.754Z,18.02
2022-09-18T12:49:54.384Z,17.66
2022-09-18T12:53:09.636Z,17.28
2022-09-18T12:56:32.146Z,17.07
2022-09-18T12:59:25.625Z,16.82
2022-09-18T13:02:37.545Z,16.82
2022-09-18T13:05:18.057Z,16.72
2022-09-18T13:08:26.407Z,16.79
2022-09-18T13:11:46.486Z,17.14
2022-09-18T13:14:45.469Z,17.18
2022-09-18T13:17:25.904Z,17.08
2022-09-18T13:20:17.870Z,16.93
2022-09-18T13:22:53.326Z,16.96
2022-09-18T13:25:37.623Z,16.97
2022-09-18T13:28:14.636Z,16.97
2022-09-18T13:30:47.164Z,17.44
2022-09-18T13:33:25.329Z,17.75
2022-09-18T13:35:58.989Z,17.88
2022-09-18T13:38:31.423Z,18.11
2022-09-18T13:41:09.386Z,18.18
2022-09-18T13:43:43.752Z,18.00
2022-09-18T13:46:40.461Z,17.90
2022-09-18T13:49:32.227Z,17.50
2022-09-18T13:52:35.131Z,17.36
2022-09-18T13:55:18.639Z,17.13
2022-09-18T13:57:47.374Z,17.14
2022-09-18T14:00:22.127Z,17.11
2022-09-18T14:03:11.810Z,16.94
2022-09-18T14:05:45.298Z,16.81
2022-09-18T14:08:23.144Z,16.68
2022-09-18T14:11:15.931Z,16.68
2022-09-18T14:13:56.033Z,16.43
2022-09-18T14:16:33.492Z,16.46
2022-09-18T14:19:21.755Z,16.51
2022-09-18T14:21:51.601Z,16.63
2022-09-18T14:24:51.776Z,17.24
2022-09-18T14:27:56.523Z,17.72
2022-09-18T14:30:31.657Z,17.85
2022-09-18T14:33:11.806Z,18.21
2022-09-18T14:36:02.930Z,18.64
2022-09-18T14:38:38.220Z,18.34
2022-09-18T14:41:32.443Z,17.83
2022-09-18T14:44:04.434Z,17.11
2022-09-18T14:46:33.686Z,17.30
2022-09-18T14:49:03.440Z,17.02
2022-09-18T14:51:44.864Z,16.86
2022-09-18T14:54:26.418Z,16.57
2022-09-18T14:57:05.129Z,16.18
2022-09-18T14:59:33.808Z,16.06
2022-09-18T15:02:37.227Z,15.98
2022-09-18T15:05:13.146Z,15.86
2022-09-18T15:07:48.824Z,15.85
2022-09-18T15:10:18.950Z,16.07
2022-09-18T15:12:48.051Z,16.11
2022-09-18T15:15:33.849Z,16.00
2022-09-18T15:18:04.165Z,15.74
2022-09-18T15:24:18.455Z,15.78
2022-09-18T15:26:57.268Z,16.31
2022-09-18T15:30:02.311Z,16.68
2022-09-18T15:32:38.797Z,16.35
2022-09-18T15:35:16.793Z,16.14
2022-09-18T15:38:02.864Z,15.85
2022-09-18T15:40:38.913Z,15.61
2022-09-18T15:43:41.313Z,15.58
2022-09-18T15:46:32.863Z,15.78
2022-09-18T15:49:23.093Z,15.51
2022-09-18T15:51:51.968Z,15.42
2022-09-18T15:54:20.723Z,15.16
2022-09-18T15:56:57.987Z,14.94
2022-09-18T15:59:33.465Z,14.79
2022-09-18T16:02:19.998Z,14.65
2022-09-18T16:04:48.849Z,14.52
2022-09-18T16:07:19.791Z,14.44
2022-09-18T16:09:49.897Z,14.39
2022-09-18T16:12:30.609Z,14.33
2022-09-18T16:15:01.522Z,14.31
2022-09-18T16:17:32.826Z,14.26
2022-09-18T16:20:25.820Z,14.20
2022-09-18T16:23:10.923Z,14.13
2022-09-18T16:25:42.324Z,14.05
2022-09-18T16:28:25.340Z,13.96
2022-09-18T16:30:56.542Z,13.83
2022-09-18T16:33:30.305Z,13.75
2022-09-18T16:36:10.814Z,13.72
2022-09-18T16:38:39.495Z,13.64
2022-09-18T16:41:10.001Z,13.59
2022-09-18T16:43:39.279Z,13.57
2022-09-18T16:46:09.278Z,13.54
2022-09-18T16:48:38.549Z,13.49
2022-09-18T16:51:07.236Z,13.50
2022-09-18T16:53:38.518Z,13.51
2022-09-18T16:56:13.153Z,13.57
2022-09-18T16:58:42.352Z,13.60
2022-09-18T17:01:11.388Z,13.62
2022-09-18T17:03:40.116Z,13.66
2022-09-18T17:06:08.677Z,13.60
2022-09-18T17:08:37.305Z,13.58
2022-09-18T17:11:06.628Z,13.57
2022-09-18T17:13:35.221Z,13.58
2022-09-18T17:16:03.988Z,13.54
2022-09-18T17:18:33.066Z,13.52
2022-09-18T17:21:16.357Z,13.51
2022-09-18T17:23:45.178Z,13.42
2022-09-18T17:26:14.635Z,13.33
2022-09-18T17:28:43.322Z,13.21
2022-09-18T17:31:15.930Z,13.12
2022-09-18T17:33:46.320Z,13.02
2022-09-18T17:36:17.979Z,12.91
2022-09-18T17:38:47.602Z,12.81
2022-09-18T17:41:19.478Z,12.72
2022-09-18T17:43:54.478Z,12.63
2022-09-18T17:46:23.130Z,12.56
2022-09-18T17:48:57.348Z,12.47
2022-09-18T17:51:28.864Z,12.39
2022-09-18T17:54:03.057Z,12.31
2022-09-18T17:56:33.478Z,12.21
2022-09-18T17:59:08.564Z,12.14
2022-09-18T18:01:43.213Z,12.03
2022-09-18T18:04:14.053Z,12.00
2022-09-18T18:06:43.616Z,11.95
2022-09-18T18:09:12.311Z,11.92
2022-09-18T18:11:43.021Z,11.85
2022-09-18T18:14:12.461Z,11.78
2022-09-18T18:16:41.543Z,11.71
2022-09-18T18:19:14.364Z,11.60
2022-09-18T18:21:43.405Z,11.52
2022-09-18T18:24:16.449Z,11.39
2022-09-18T18:26:46.797Z,11.31
2022-09-18T18:29:19.047Z,11.23
2022-09-18T18:31:49.421Z,11.17
2022-09-18T18:34:22.439Z,11.15
2022-09-18T18:36:51.296Z,11.12
2022-09-18T18:39:20.438Z,11.01
2022-09-18T18:41:50.140Z,10.91
2022-09-18T18:44:18.877Z,10.70
2022-09-18T18:46:48.520Z,10.49
2022-09-18T18:49:17.198Z,10.36
2022-09-18T18:51:48.709Z,10.24
2022-09-18T18:54:21.602Z,10.07
2022-09-18T18:56:50.523Z,9.88
2022-09-18T18:59:22.509Z,9.75
2022-09-18T19:01:51.258Z,9.69
2022-09-18T19:04:19.912Z,9.60
2022-09-18T19:06:50.087Z,9.45
2022-09-18T19:09:22.547Z,9.43
2022-09-18T19:11:53.303Z,9.43
2022-09-18T19:14:29.159Z,9.42
2022-09-18T19:17:06.376Z,9.37
2022-09-18T19:19:34.914Z,9.35
2022-09-18T19:22:03.650Z,9.30
2022-09-18T19:24:32.263Z,9.25
2022-09-18T19:27:01.448Z,9.21
2022-09-18T19:29:31.215Z,9.20
2022-09-18T19:32:00.603Z,9.19
2022-09-18T19:34:29.211Z,9.17
2022-09-18T19:36:58.301Z,9.16
2022-09-18T19:39:27.369Z,9.17
2022-09-18T19:42:13.450Z,9.19
2022-09-18T19:44:52.720Z,9.19
2022-09-18T19:47:35.711Z,9.13
2022-09-18T19:50:06.321Z,9.17
2022-09-18T19:52:35.443Z,9.21
2022-09-18T19:55:04.574Z,9.16
2022-09-18T19:57:33.290Z,9.12
2022-09-18T20:00:02.873Z,9.06
2022-09-18T20:02:41.444Z,8.92
2022-09-18T20:05:10.773Z,8.78
2022-09-18T20:07:40.772Z,8.70
2022-09-18T20:10:13.569Z,8.65
2022-09-18T20:12:42.800Z,8.60
2022-09-18T20:15:12.445Z,8.57
2022-09-18T20:17:41.124Z,8.58
2022-09-18T20:20:15.642Z,8.50
2022-09-18T20:22:45.013Z,8.41
2022-09-18T20:25:13.879Z,8.36
2022-09-18T20:27:42.857Z,8.28
2022-09-18T20:30:12.860Z,8.20
2022-09-18T20:32:42.209Z,8.15
2022-09-18T20:35:10.945Z,8.12
2022-09-18T20:37:39.543Z,8.07
2022-09-18T20:40:13.503Z,7.99
2022-09-18T20:42:42.270Z,7.97
2022-09-18T20:45:10.931Z,7.95
2022-09-18T20:47:39.560Z,8.03
2022-09-18T20:50:14.585Z,8.03
2022-09-18T20:52:46.070Z,8.02
2022-09-18T20:55:17.803Z,8.06
2022-09-18T20:57:46.790Z,8.03
2022-09-18T21:00:17.808Z,7.99
2022-09-18T21:02:52.078Z,7.90
2022-09-18T21:05:26.448Z,7.84
2022-09-18T21:08:04.136Z,7.78
2022-09-18T21:10:33.133Z,7.80
2022-09-18T21:13:04.360Z,7.77
2022-09-18T21:15:35.106Z,7.72
2022-09-18T21:18:06.462Z,7.68
2022-09-18T21:20:35.044Z,7.65
2022-09-18T21:23:21.871Z,7.61
2022-09-18T21:25:50.459Z,7.56
2022-09-18T21:28:19.127Z,7.56
2022-09-18T21:30:47.929Z,7.54
2022-09-18T21:33:16.540Z,7.48
2022-09-18T21:35:55.062Z,7.45
2022-09-18T21:38:23.737Z,7.40
2022-09-18T21:40:52.404Z,7.37
2022-09-18T21:43:21.439Z,7.43
2022-09-18T21:45:50.376Z,7.44
2022-09-18T21:48:19.071Z,7.37
2022-09-18T21:50:47.867Z,7.34
2022-09-18T21:53:16.640Z,7.32
2022-09-18T21:55:45.246Z,7.28
2022-09-18T21:58:13.854Z,7.24
2022-09-18T22:00:42.730Z,7.19
2022-09-18T22:03:12.962Z,7.16
2022-09-18T22:05:41.732Z,7.13
2022-09-18T22:08:11.723Z,7.12
2022-09-18T22:10:40.454Z,7.11
2022-09-18T22:13:09.171Z,7.07
2022-09-18T22:15:37.830Z,7.08
2022-09-18T22:18:06.528Z,7.06
2022-09-18T22:20:38.170Z,7.06
2022-09-18T22:23:06.958Z,7.04
2022-09-18T22:25:35.725Z,7.03
2022-09-18T22:28:05.238Z,6.97
2022-09-18T22:30:33.882Z,6.92
2022-09-18T22:33:04.146Z,6.89
2022-09-18T22:35:33.931Z,6.91
2022-09-18T22:38:02.518Z,6.88
2022-09-18T22:40:31.145Z,6.86
2022-09-18T22:43:00.093Z,6.80
2022-09-18T22:45:28.796Z,6.76
2022-09-18T22:47:57.456Z,6.75
2022-09-18T22:50:26.173Z,6.73
2022-09-18T22:52:54.885Z,6.74
2022-09-18T22:55:23.495Z,6.72
2022-09-18T22:57:52.046Z,6.72
2022-09-18T23:00:20.787Z,6.70
2022-09-18T23:02:49.791Z,6.74
2022-09-18T23:05:18.498Z,6.75
2022-09-18T23:07:47.607Z,6.77
2022-09-18T23:10:16.314Z,6.72
2022-09-18T23:12:44.967Z,6.68
2022-09-18T23:15:15.278Z,6.65
2022-09-18T23:17:44.597Z,6.66
2022-09-18T23:20:13.182Z,6.63
2022-09-18T23:22:41.840Z,6.60
2022-09-18T23:25:10.544Z,6.58
2022-09-18T23:27:39.246Z,6.56
2022-09-18T23:30:09.529Z,6.52
2022-09-18T23:32:38.114Z,6.47
2022-09-18T23:35:07.695Z,6.57
2022-09-18T23:37:36.340Z,6.49
2022-09-18T23:40:06.290Z,6.45
2022-09-18T23:42:34.971Z,6.39
2022-09-18T23:45:04.451Z,6.36
2022-09-18T23:47:34.467Z,6.32
2022-09-18T23:50:03.275Z,6.29
2022-09-18T23:52:32.057Z,6.24
2022-09-18T23:55:00.838Z,6.22
2022-09-18T23:57:30.972Z,6.21
2022-09-18T23:59:59.714Z,6.20
